Time;durP1;ratioP1;P1;durP2;ratioP2;P2;SDS_P1;SDS_P2;PMS_P1;PMS_P2;Temp;Humidity;BMP_temperature;BMP_pressure;BME280_temperature;BME280_humidity;BME280_pressure;Samples;Min_cycle;Max_cycle;Signal;HPM_P1;HPM_P2
2022/11/20 00:01:25;;;;;;;28.75;13.43;;;;;;;1.82;74.36;99463.00;4290950;33;33636;-71
2022/11/20 00:03:54;;;;;;;27.37;13.77;;;;;;;1.62;75.16;99462.03;4291624;33;34180;-74
2022/11/20 00:06:22;;;;;;;26.00;13.68;;;;;;;1.55;75.35;99451.31;4304201;33;35008;-73
2022/11/20 00:08:50;;;;;;;23.70;11.85;;;;;;;1.64;74.74;99451.97;4279360;33;34549;-75
2022/11/20 00:11:23;;;;;;;23.73;12.37;;;;;;;1.28;75.95;99449.53;4291565;33;33887;-73
2022/11/20 00:13:52;;;;;;;21.10;11.27;;;;;;;1.31;76.20;99459.81;4290405;33;35111;-75
2022/11/20 00:16:22;;;;;;;18.75;10.63;;;;;;;1.43;75.55;99447.56;4303613;33;34377;-74
2022/11/20 00:18:49;;;;;;;22.30;12.10;;;;;;;1.33;75.76;99458.59;4304422;33;34594;-73
2022/11/20 00:21:19;;;;;;;21.98;11.50;;;;;;;1.79;73.56;99459.87;4291405;33;34763;-75
2022/11/20 00:23:49;;;;;;;20.50;10.93;;;;;;;1.81;73.50;99466.69;4291432;33;33921;-75
2022/11/20 00:26:18;;;;;;;22.92;12.95;;;;;;;1.85;73.85;99478.62;4304530;33;34066;-73
2022/11/20 00:28:51;;;;;;;20.55;11.23;;;;;;;2.18;72.69;99461.91;4303441;33;34080;-74
2022/11/20 00:31:19;;;;;;;20.60;10.25;;;;;;;2.75;69.96;99454.38;4290731;33;36525;-73
2022/11/20 00:33:47;;;;;;;18.00;9.95;;;;;;;2.66;69.80;99469.81;4291293;33;34785;-73
2022/11/20 00:36:17;;;;;;;17.55;10.25;;;;;;;2.51;70.05;99473.72;4290631;33;34046;-75
2022/11/20 00:38:46;;;;;;;17.40;9.65;;;;;;;2.67;69.74;99492.06;4290408;33;33517;-71
2022/11/20 00:41:15;;;;;;;18.80;9.63;;;;;;;2.82;68.26;99489.19;4304447;33;33963;-74
2022/11/20 00:43:42;;;;;;;19.30;10.65;;;;;;;2.93;67.97;99474.38;4303625;33;34245;-71
2022/11/20 00:46:13;;;;;;;19.85;10.30;;;;;;;2.37;70.27;99470.16;4303032;33;35054;-75
2022/11/20 00:48:41;;;;;;;3.83;2.42;;;;;;;2.01;71.43;99465.97;4291222;33;33426;-73
2022/11/20 00:51:09;;;;;;;20.30;10.70;;;;;;;2.42;70.58;99465.88;4275113;33;34099;-73
2022/11/20 00:53:36;;;;;;;22.67;11.55;;;;;;;2.26;70.57;99458.19;4276864;33;35094;-73
2022/11/20 00:56:06;;;;;;;19.15;10.85;;;;;;;2.08;71.10;99452.59;4290973;33;34252;-75
2022/11/20 00:58:35;;;;;;;20.62;10.98;;;;;;;2.10;70.97;99453.22;4290761;33;33313;-73
2022/11/20 01:01:05;;;;;;;19.98;11.40;;;;;;;2.18;70.90;99445.00;4304329;33;34066;-75
2022/11/20 01:03:34;;;;;;;21.15;11.55;;;;;;;1.59;73.25;99444.56;4290987;33;34871;-75
2022/11/20 01:06:04;;;;;;;21.37;11.35;;;;;;;1.84;72.68;99449.41;4291326;33;34807;-73
2022/11/20 01:08:35;;;;;;;19.62;11.38;;;;;;;1.83;72.40;99453.09;4289289;33;33679;-74
2022/11/20 01:11:06;;;;;;;21.25;11.88;;;;;;;2.01;72.19;99464.09;4303983;33;33697;-73
2022/11/20 01:13:37;;;;;;;22.62;11.70;;;;;;;1.94;71.93;99463.22;4303381;33;34056;-75
2022/11/20 01:16:15;;;;;;;19.67;11.18;;;;;;;1.93;72.09;99472.28;4291193;33;33962;-74
2022/11/20 01:18:45;;;;;;;22.10;10.85;;;;;;;2.12;71.31;99478.75;4304179;33;33683;-72
2022/11/20 01:21:15;;;;;;;20.45;10.80;;;;;;;2.19;70.77;99474.25;4291023;33;33927;-73
2022/11/20 01:23:43;;;;;;;21.92;10.98;;;;;;;1.96;71.54;99474.56;4304205;33;34329;-74
2022/11/20 01:26:13;;;;;;;18.60;11.05;;;;;;;2.03;71.75;99486.12;4302226;33;35100;-74
2022/11/20 01:28:41;;;;;;;18.15;10.15;;;;;;;1.69;73.37;99478.97;4303367;33;34709;-75
2022/11/20 01:31:12;;;;;;;1.00;0.90;;;;;;;2.03;72.77;99475.44;4303995;33;33914;-74
2022/11/20 01:33:41;;;;;;;17.55;10.05;;;;;;;2.52;71.07;99461.97;4303970;33;34379;-73
2022/11/20 01:36:09;;;;;;;20.12;10.90;;;;;;;2.58;70.71;99464.66;4303899;33;34823;-74
2022/11/20 01:38:36;;;;;;;19.42;10.63;;;;;;;3.06;69.81;99463.66;4291034;33;33667;-73
2022/11/20 01:41:05;;;;;;;19.00;10.98;;;;;;;3.53;68.78;99468.97;4289896;33;34787;-74
2022/11/20 01:43:32;;;;;;;20.62;11.48;;;;;;;3.33;69.66;99469.81;4303031;33;34183;-75
2022/11/20 01:46:24;;;;;;;19.52;11.15;;;;;;;3.64;69.30;99463.75;4290877;33;34827;-75
2022/11/20 01:49:02;;;;;;;20.70;11.12;;;;;;;3.74;69.18;99460.66;4303464;33;32985;-75
2022/11/20 01:51:42;;;;;;;19.02;11.43;;;;;;;3.83;68.23;99454.00;4303076;33;33977;-73
2022/11/20 01:54:16;;;;;;;19.15;10.52;;;;;;;3.88;67.59;99445.31;4289914;33;34151;-74
2022/11/20 01:56:46;;;;;;;18.25;10.70;;;;;;;3.48;68.83;99456.19;4289705;33;34335;-74
2022/11/20 01:59:15;;;;;;;19.08;10.32;;;;;;;4.02;67.64;99443.41;4285511;33;34615;-74
2022/11/20 02:01:43;;;;;;;17.37;9.48;;;;;;;4.00;68.14;99442.81;4289499;33;33477;-75
2022/11/20 02:04:11;;;;;;;18.62;9.75;;;;;;;3.71;68.77;99442.28;4301975;33;33709;-75
2022/11/20 02:06:44;;;;;;;18.00;9.93;;;;;;;3.59;68.88;99452.84;4289487;33;34153;-74
2022/11/20 02:09:13;;;;;;;19.45;10.25;;;;;;;3.87;67.26;99446.38;4302394;33;34699;-74
2022/11/20 02:11:40;;;;;;;18.73;10.93;;;;;;;3.97;66.53;99453.94;4302853;33;34551;-74
2022/11/20 02:14:08;;;;;;;22.15;11.10;;;;;;;3.88;66.64;99450.69;4300712;33;35049;-74
2022/11/20 02:16:43;;;;;;;20.77;10.88;;;;;;;3.72;67.19;99448.50;4284301;33;34245;-74
2022/11/20 02:19:24;;;;;;;19.25;10.48;;;;;;;3.42;68.59;99446.28;4275039;33;34490;-75
2022/11/20 02:21:52;;;;;;;21.50;11.02;;;;;;;4.33;65.56;99448.00;4275145;33;34045;-74
2022/11/20 02:24:21;;;;;;;19.48;10.60;;;;;;;4.06;65.95;99458.03;4287684;33;34254;-75
2022/11/20 02:26:53;;;;;;;19.37;10.68;;;;;;;3.57;67.70;99459.47;4274777;33;34912;-74
2022/11/20 02:29:32;;;;;;;18.23;10.38;;;;;;;3.99;66.81;99459.94;4289100;33;32155;-74
2022/11/20 02:32:01;;;;;;;16.48;9.52;;;;;;;4.09;67.53;99449.56;4287984;33;33933;-73
2022/11/20 02:34:28;;;;;;;19.42;11.25;;;;;;;3.76;68.79;99445.16;4302275;33;35029;-75
2022/11/20 02:36:56;;;;;;;20.88;11.05;;;;;;;3.12;71.39;99444.06;4302239;33;34874;-74
2022/11/20 02:39:25;;;;;;;19.83;10.90;;;;;;;3.97;68.85;99443.22;4277004;33;33172;-75
2022/11/20 02:41:54;;;;;;;20.60;11.82;;;;;;;3.83;68.42;99443.28;4288564;33;33917;-75
2022/11/20 02:44:21;;;;;;;22.77;12.18;;;;;;;2.93;71.88;99442.22;4288962;33;35129;-74
2022/11/20 02:46:48;;;;;;;24.67;13.15;;;;;;;4.00;68.48;99437.44;4301881;33;33858;-74
2022/11/20 02:49:16;;;;;;;26.00;13.25;;;;;;;4.01;68.07;99431.84;4279029;33;33529;-73
2022/11/20 02:51:44;;;;;;;25.58;13.95;;;;;;;3.60;69.60;99433.03;4274559;33;33900;-73
2022/11/20 02:54:11;;;;;;;27.73;14.77;;;;;;;3.53;70.18;99437.59;4282798;33;163400;-74
2022/11/20 02:56:39;;;;;;;27.98;14.20;;;;;;;3.76;69.47;99441.62;4297482;33;34803;-72
2022/11/20 02:59:07;;;;;;;29.63;14.75;;;;;;;3.90;68.20;99436.00;4302882;33;34724;-73
2022/11/20 03:01:34;;;;;;;30.00;15.70;;;;;;;3.40;70.13;99418.84;4304062;33;33991;-74
2022/11/20 03:04:02;;;;;;;31.87;15.27;;;;;;;3.38;70.32;99419.06;4278813;33;34921;-74
2022/11/20 03:06:29;;;;;;;28.45;15.02;;;;;;;3.31;70.51;99412.09;4289645;33;34808;-74
2022/11/20 03:08:56;;;;;;;30.92;15.73;;;;;;;2.81;72.75;99413.38;4290200;33;34428;-74
2022/11/20 03:11:24;;;;;;;31.85;15.85;;;;;;;2.87;72.34;99409.88;4290460;33;34019;-72
2022/11/20 03:13:51;;;;;;;29.40;15.25;;;;;;;2.83;71.93;99421.19;4265420;33;33397;-75
2022/11/20 03:16:20;;;;;;;31.73;16.70;;;;;;;2.79;72.99;99415.44;4284213;33;34886;-74
2022/11/20 03:18:48;;;;;;;32.13;15.98;;;;;;;2.90;72.50;99413.16;4291709;33;34643;-75
2022/11/20 03:21:16;;;;;;;31.40;15.88;;;;;;;3.13;71.57;99423.44;4290920;33;33867;-74
2022/11/20 03:23:43;;;;;;;30.55;15.82;;;;;;;3.05;71.20;99430.66;4304717;33;33783;-73
2022/11/20 03:26:23;;;;;;;30.58;15.20;;;;;;;2.64;73.29;99446.94;4304822;33;34861;-73
2022/11/20 03:28:52;;;;;;;29.67;15.38;;;;;;;2.91;72.39;99452.31;4291652;33;33700;-74
2022/11/20 03:31:22;;;;;;;29.50;14.52;;;;;;;3.18;71.66;99451.28;4304439;33;33961;-74
2022/11/20 03:33:49;;;;;;;30.48;14.35;;;;;;;3.38;70.23;99450.41;4304865;33;34101;-73
2022/11/20 03:36:18;;;;;;;29.02;15.85;;;;;;;3.30;70.73;99438.03;4291404;33;34926;-75
2022/11/20 03:38:46;;;;;;;29.95;14.35;;;;;;;2.99;71.96;99436.84;4303608;33;33758;-74
2022/11/20 03:41:17;;;;;;;27.75;15.55;;;;;;;2.88;72.80;99430.25;4291417;33;33996;-74
2022/11/20 03:43:56;;;;;;;33.55;15.98;;;;;;;2.35;75.12;99424.84;4291459;33;34199;-74
2022/11/20 03:46:24;;;;;;;7.43;2.62;;;;;;;2.23;76.21;99429.16;4280240;33;33846;-75
2022/11/20 03:48:52;;;;;;;31.95;14.35;;;;;;;2.41;75.76;99425.91;4288993;33;33444;-75
2022/11/20 03:51:24;;;;;;;32.38;15.32;;;;;;;2.21;76.55;99434.72;4284670;33;34742;-74
2022/11/20 03:53:53;;;;;;;30.42;16.00;;;;;;;2.21;77.24;99437.41;4291513;33;34034;-72
2022/11/20 03:56:24;;;;;;;30.83;16.33;;;;;;;2.76;75.01;99437.25;4293122;33;34831;-75
2022/11/20 03:58:51;;;;;;;30.95;16.65;;;;;;;3.05;73.19;99441.38;4295545;33;34570;-78
2022/11/20 04:01:21;;;;;;;30.20;15.85;;;;;;;2.94;73.46;99431.31;4304726;33;33411;-79
2022/11/20 04:03:49;;;;;;;28.67;14.68;;;;;;;2.88;74.46;99421.41;4304424;33;33762;-74
2022/11/20 04:06:19;;;;;;;31.00;14.95;;;;;;;2.69;75.23;99416.88;4291451;33;34727;-79
2022/11/20 04:08:47;;;;;;;30.58;15.38;;;;;;;2.64;75.72;99417.50;4279340;33;32058;-74
2022/11/20 04:11:25;;;;;;;32.70;16.77;;;;;;;2.80;75.29;99405.53;4303393;33;34695;-74
2022/11/20 04:13:56;;;;;;;34.00;16.87;;;;;;;2.94;75.46;99407.19;4290126;33;34173;-78
2022/11/20 04:16:24;;;;;;;31.23;16.73;;;;;;;3.25;74.35;99395.78;4304232;33;34235;-74
2022/11/20 04:18:56;;;;;;;30.75;16.45;;;;;;;2.59;76.31;99388.66;4291521;33;33766;-78
2022/11/20 04:21:25;;;;;;;32.63;17.17;;;;;;;3.32;74.74;99387.72;4291176;33;33744;-74
2022/11/20 04:23:53;;;;;;;30.02;15.32;;;;;;;3.58;73.69;99386.81;4304547;33;35102;-79
2022/11/20 04:26:21;;;;;;;28.33;14.32;;;;;;;3.95;72.96;99387.06;4291419;33;34305;-76
2022/11/20 04:28:49;;;;;;;27.77;15.00;;;;;;;4.32;71.28;99390.78;4282044;33;33881;-80
2022/11/20 04:31:22;;;;;;;26.45;13.50;;;;;;;4.08;71.83;99395.06;4277110;33;34637;-82
2022/11/20 04:33:49;;;;;;;24.42;13.93;;;;;;;4.75;69.20;99394.56;4276935;33;35038;-76
2022/11/20 04:36:20;;;;;;;24.58;13.60;;;;;;;4.14;70.36;99392.53;4289805;33;34814;-76
2022/11/20 04:38:56;;;;;;;27.67;14.52;;;;;;;4.30;70.08;99395.53;4276979;33;33896;-82
2022/11/20 04:41:26;;;;;;;25.73;14.43;;;;;;;4.12;70.59;99392.75;4294545;33;33964;-76
2022/11/20 04:43:58;;;;;;;27.08;14.30;;;;;;;3.94;71.01;99379.22;4295224;33;35168;-77
2022/11/20 04:46:27;;;;;;;26.83;14.75;;;;;;;4.57;69.36;99381.09;4280139;33;34236;-77
2022/11/20 04:48:54;;;;;;;27.20;14.43;;;;;;;4.53;68.99;99380.69;4313209;33;34839;-77
2022/11/20 04:51:22;;;;;;;25.05;13.10;;;;;;;4.02;70.28;99379.00;4282259;33;33885;-83
2022/11/20 04:53:49;;;;;;;24.77;12.82;;;;;;;4.72;68.79;99379.72;4312565;33;34397;-84
2022/11/20 04:56:17;;;;;;;23.75;13.02;;;;;;;4.77;69.21;99373.69;4318876;33;34337;-84
2022/11/20 04:58:44;;;;;;;24.80;13.35;;;;;;;4.45;69.65;99356.78;4296422;33;34618;-76
2022/11/20 05:01:17;;;;;;;22.67;12.55;;;;;;;4.28;70.57;99361.88;4288842;33;34565;-76
2022/11/20 05:03:45;;;;;;;24.95;14.10;;;;;;;4.62;70.21;99374.03;4288649;33;34273;-87
2022/11/20 05:06:15;;;;;;;28.25;14.32;;;;;;;4.34;70.85;99373.59;4304228;33;34395;-85
2022/11/20 05:08:43;;;;;;;23.20;12.73;;;;;;;4.82;68.85;99370.34;4304077;33;33422;-85
2022/11/20 05:11:12;;;;;;;22.65;12.98;;;;;;;4.64;68.43;99377.28;4299055;33;33796;-74
2022/11/20 05:13:40;;;;;;;23.80;13.18;;;;;;;4.84;68.33;99385.22;4285955;33;34004;-76
2022/11/20 05:16:13;;;;;;;25.30;13.50;;;;;;;4.41;69.81;99377.09;4303925;33;34186;-78
2022/11/20 05:18:42;;;;;;;23.38;13.23;;;;;;;3.52;72.68;99373.41;4289690;33;34006;-77
2022/11/20 05:21:10;;;;;;;24.63;13.40;;;;;;;4.02;71.41;99373.63;4276584;33;34888;-80
2022/11/20 05:23:38;;;;;;;22.45;12.70;;;;;;;4.67;70.23;99387.62;4289044;33;34144;-77
2022/11/20 05:26:08;;;;;;;23.83;12.35;;;;;;;4.23;71.41;99380.50;4289668;33;34223;-77
2022/11/20 05:28:35;;;;;;;23.25;12.55;;;;;;;4.38;71.29;99364.09;4296361;33;33782;-74
2022/11/20 05:31:06;;;;;;;26.20;13.38;;;;;;;4.95;69.65;99362.16;4303782;33;34525;-74
2022/11/20 05:33:35;;;;;;;23.58;13.02;;;;;;;4.59;70.92;99358.34;4289875;33;34040;-76
2022/11/20 05:36:04;;;;;;;22.13;12.43;;;;;;;4.70;70.45;99349.56;4303568;33;34127;-77
2022/11/20 05:38:31;;;;;;;22.65;12.82;;;;;;;4.72;70.61;99343.97;4303945;33;34427;-77
2022/11/20 05:41:19;;;;;;;25.62;13.45;;;;;;;4.61;69.97;99337.44;4290878;33;34620;-73
2022/11/20 05:43:47;;;;;;;22.80;12.80;;;;;;;4.24;71.04;99342.69;4302986;33;34536;-76
2022/11/20 05:46:19;;;;;;;23.55;12.32;;;;;;;4.35;70.91;99351.91;4290937;33;33973;-79
2022/11/20 05:48:55;;;;;;;25.48;13.57;;;;;;;4.27;71.28;99361.03;4295141;33;33858;-73
2022/11/20 05:51:23;;;;;;;22.00;12.20;;;;;;;4.41;70.81;99367.16;4289667;33;33990;-78
2022/11/20 05:53:50;;;;;;;26.50;14.52;;;;;;;4.65;70.15;99373.59;4276196;33;34988;-78
2022/11/20 05:56:20;;;;;;;27.90;15.52;;;;;;;4.63;70.30;99369.47;4288684;33;35020;-73
2022/11/20 05:58:48;;;;;;;29.30;14.60;;;;;;;4.78;69.50;99374.53;4288193;33;34363;-79
2022/11/20 06:01:19;;;;;;;28.33;15.75;;;;;;;4.73;68.90;99384.06;4276126;33;33063;-76
2022/11/20 06:03:47;;;;;;;28.83;14.32;;;;;;;4.42;70.14;99376.03;4288568;33;34074;-74
2022/11/20 06:06:15;;;;;;;25.37;13.93;;;;;;;4.46;70.68;99388.00;4281557;33;33793;-90
2022/11/20 06:08:44;;;;;;;26.90;14.65;;;;;;;4.76;69.67;99384.66;4291245;33;34924;-86
2022/11/20 06:11:13;;;;;;;23.98;13.90;;;;;;;4.23;70.11;99372.44;4288138;33;33687;-80
2022/11/20 06:13:41;;;;;;;24.45;14.07;;;;;;;4.16;70.52;99377.84;4301799;33;34783;-84
2022/11/20 06:16:10;;;;;;;24.10;14.13;;;;;;;4.90;68.38;99383.50;4300024;33;33969;-75
2022/11/20 06:18:38;;;;;;;23.48;13.60;;;;;;;4.43;69.43;99383.06;4300836;33;34590;-84
2022/11/20 06:21:12;;;;;;;22.70;12.65;;;;;;;4.65;69.50;99387.03;4300601;33;34735;-79
2022/11/20 06:23:40;;;;;;;22.17;12.23;;;;;;;4.30;70.66;99390.16;4301356;33;34009;-77
2022/11/20 06:26:10;;;;;;;21.75;12.35;;;;;;;4.71;69.45;99383.47;4288535;33;34457;-75
2022/11/20 06:28:38;;;;;;;20.50;11.48;;;;;;;4.45;68.86;99381.81;4302151;33;34573;-75
2022/11/20 06:31:06;;;;;;;22.17;12.52;;;;;;;4.13;70.94;99386.34;4283880;33;34637;-76
2022/11/20 06:33:34;;;;;;;23.77;13.15;;;;;;;4.26;70.60;99391.63;4274341;33;33919;-80
2022/11/20 06:36:01;;;;;;;25.42;13.18;;;;;;;4.18;69.80;99404.50;4287928;33;34085;-75
2022/11/20 06:38:37;;;;;;;24.85;13.13;;;;;;;3.95;70.49;99415.75;4277118;33;34375;-81
2022/11/20 06:41:12;;;;;;;25.65;12.90;;;;;;;3.94;70.09;99417.62;4297841;33;34085;-75
2022/11/20 06:43:40;;;;;;;24.73;13.23;;;;;;;4.34;68.54;99422.78;4291457;33;34324;-79
2022/11/20 06:46:10;;;;;;;26.05;14.60;;;;;;;4.34;68.31;99420.09;4289691;33;33877;-86
2022/11/20 06:48:37;;;;;;;26.35;14.55;;;;;;;4.59;67.89;99425.50;4296572;33;33928;-81
2022/11/20 06:51:06;;;;;;;24.58;14.65;;;;;;;4.44;68.68;99425.00;4303459;33;35235;-75
2022/11/20 06:53:34;;;;;;;22.17;12.70;;;;;;;4.86;67.88;99420.75;4289556;33;33988;-81
2022/11/20 06:56:20;;;;;;;23.90;13.23;;;;;;;4.49;68.99;99409.03;4303170;33;34311;-76
2022/11/20 06:58:47;;;;;;;21.27;12.23;;;;;;;4.52;69.04;99406.75;4303739;33;33663;-75
2022/11/20 07:01:15;;;;;;;26.00;12.75;;;;;;;3.98;71.03;99407.31;4303654;33;33783;-76
2022/11/20 07:03:42;;;;;;;23.35;12.55;;;;;;;4.78;68.54;99396.84;4303563;33;33886;-80
2022/11/20 07:06:10;;;;;;;26.15;13.93;;;;;;;5.44;66.18;99403.47;4290570;33;34125;-82
2022/11/20 07:08:38;;;;;;;28.12;14.75;;;;;;;5.43;65.53;99398.28;4290518;33;33454;-79
2022/11/20 07:11:06;;;;;;;23.12;14.00;;;;;;;5.14;66.76;99414.13;4302218;33;33998;-75
2022/11/20 07:13:34;;;;;;;23.35;14.43;;;;;;;5.46;66.09;99416.66;4278610;33;34089;-77
2022/11/20 07:16:05;;;;;;;23.77;13.60;;;;;;;5.19;66.81;99427.72;4302978;33;34553;-77
2022/11/20 07:18:32;;;;;;;24.98;14.30;;;;;;;5.03;67.80;99428.25;4290355;33;34466;-76
2022/11/20 07:21:01;;;;;;;24.37;13.38;;;;;;;4.09;71.68;99420.84;4278533;33;34116;-82
2022/11/20 07:23:29;;;;;;;25.67;14.25;;;;;;;4.60;71.18;99432.53;4278305;33;33017;-77
2022/11/20 07:25:56;;;;;;;26.62;14.68;;;;;;;4.15;71.94;99426.38;4303167;33;34250;-76
2022/11/20 07:28:24;;;;;;;22.40;13.60;;;;;;;4.50;71.57;99426.81;4302307;33;34256;-80
2022/11/20 07:30:52;;;;;;;25.23;14.32;;;;;;;4.11;73.92;99440.25;4301744;33;33951;-77
2022/11/20 07:33:20;;;;;;;22.27;12.75;;;;;;;4.40;72.72;99434.53;4302398;33;33712;-76
2022/11/20 07:35:47;;;;;;;22.95;12.77;;;;;;;4.72;71.96;99432.66;4303184;33;34299;-77
2022/11/20 07:38:15;;;;;;;23.52;12.88;;;;;;;4.64;71.77;99436.41;4303367;33;33428;-75
2022/11/20 07:40:42;;;;;;;24.83;14.45;;;;;;;4.06;74.36;99432.03;4302281;33;33696;-78
2022/11/20 07:43:10;;;;;;;25.42;14.32;;;;;;;4.54;73.63;99427.22;4301569;33;34200;-75
2022/11/20 07:45:38;;;;;;;24.98;13.98;;;;;;;4.73;73.41;99437.81;4302541;33;34475;-77
2022/11/20 07:48:05;;;;;;;23.65;13.65;;;;;;;4.79;73.10;99440.66;4291337;33;33741;-76
2022/11/20 07:50:33;;;;;;;27.80;14.68;;;;;;;5.03;72.44;99431.78;4304586;33;34723;-78
2022/11/20 07:53:04;;;;;;;28.48;15.68;;;;;;;4.78;73.34;99436.34;4304060;33;34173;-76
2022/11/20 07:55:32;;;;;;;30.50;17.33;;;;;;;3.83;76.48;99439.78;4291398;33;34008;-77
2022/11/20 07:57:59;;;;;;;28.95;15.73;;;;;;;4.14;75.70;99428.25;4291218;33;34468;-75
2022/11/20 08:00:27;;;;;;;25.52;14.27;;;;;;;4.81;73.35;99431.34;4304303;33;34623;-75
2022/11/20 08:02:55;;;;;;;25.40;14.60;;;;;;;4.39;74.47;99431.03;4302957;33;34994;-77
2022/11/20 08:05:22;;;;;;;25.33;14.50;;;;;;;4.98;72.41;99418.16;4304054;33;33824;-76
2022/11/20 08:07:49;;;;;;;32.03;19.10;;;;;;;5.32;70.40;99416.81;4304323;33;33882;-74
2022/11/20 08:10:17;;;;;;;25.80;14.50;;;;;;;5.29;70.79;99411.03;4291294;33;33974;-74
2022/11/20 08:15:35;;;;;;;25.65;14.87;;;;;;;5.35;70.53;99407.47;4290789;33;32609;-74
2022/11/20 08:18:08;;;;;;;27.15;14.40;;;;;;;5.47;71.28;99416.44;4291257;33;33757;-75
2022/11/20 08:20:55;;;;;;;29.67;15.60;;;;;;;6.19;69.00;99418.50;4303358;33;33626;-75
2022/11/20 08:23:23;;;;;;;27.95;14.90;;;;;;;6.28;68.03;99413.63;4304175;33;34964;-75
2022/11/20 08:25:50;;;;;;;30.75;16.73;;;;;;;5.94;69.58;99411.38;4304008;33;34310;-76
2022/11/20 08:28:21;;;;;;;25.23;15.98;;;;;;;5.60;71.89;99409.28;4291646;33;33734;-74
2022/11/20 08:30:49;;;;;;;29.52;17.10;;;;;;;5.12;74.31;99408.94;4303326;33;33784;-76
2022/11/20 08:33:17;;;;;;;29.12;17.48;;;;;;;6.10;71.12;99423.38;4278973;33;33274;-76
2022/11/20 08:35:45;;;;;;;27.73;17.58;;;;;;;6.44;69.86;99428.34;4290318;33;34297;-75
2022/11/20 08:38:13;;;;;;;29.23;16.58;;;;;;;5.94;72.62;99435.63;4304048;33;33500;-76
2022/11/20 08:40:40;;;;;;;30.62;16.77;;;;;;;6.03;71.20;99421.84;4304125;33;34062;-73
2022/11/20 08:43:08;;;;;;;30.92;16.85;;;;;;;5.23;73.10;99415.47;4303694;33;35008;-74
2022/11/20 08:45:35;;;;;;;29.65;16.90;;;;;;;5.83;72.16;99430.13;4303836;33;35054;-71
2022/11/20 08:48:03;;;;;;;26.85;15.38;;;;;;;5.98;71.53;99435.97;4304269;33;34894;-74
2022/11/20 08:50:32;;;;;;;26.37;13.65;;;;;;;6.22;71.20;99436.91;4304152;33;33663;-72
2022/11/20 08:53:04;;;;;;;22.67;13.70;;;;;;;6.11;72.10;99443.91;4301303;33;34302;-75
2022/11/20 08:55:32;;;;;;;24.45;14.52;;;;;;;6.66;69.77;99447.50;4293007;33;34503;-78
2022/11/20 08:58:04;;;;;;;22.23;13.73;;;;;;;6.06;72.39;99459.91;4296039;33;33929;-74
2022/11/20 09:00:32;;;;;;;23.00;13.73;;;;;;;6.22;71.71;99457.63;4290330;33;34047;-75
2022/11/20 09:03:00;;;;;;;23.27;13.50;;;;;;;6.66;68.84;99463.66;4277852;33;34152;-77
2022/11/20 09:05:28;;;;;;;22.50;12.98;;;;;;;6.93;68.40;99466.75;4281818;33;34227;-74
2022/11/20 09:07:57;;;;;;;22.25;13.18;;;;;;;6.77;68.57;99468.25;4298064;33;33443;-76
2022/11/20 09:10:25;;;;;;;25.05;13.73;;;;;;;6.22;69.70;99458.47;4292105;33;34040;-75
2022/11/20 09:12:53;;;;;;;25.85;14.18;;;;;;;6.47;69.71;99469.09;4290429;33;35074;-75
2022/11/20 09:15:21;;;;;;;21.23;12.40;;;;;;;7.09;67.76;99459.87;4280317;33;33494;-77
2022/11/20 09:17:58;;;;;;;21.87;12.57;;;;;;;7.01;67.16;99457.53;4303933;33;34714;-77
2022/11/20 09:20:28;;;;;;;22.87;13.13;;;;;;;6.81;68.73;99465.94;4284930;33;33354;-76
2022/11/20 09:22:56;;;;;;;24.33;13.82;;;;;;;6.85;68.38;99467.13;4293530;33;35058;-73
2022/11/20 09:25:24;;;;;;;23.77;13.98;;;;;;;6.40;70.44;99463.00;4318469;33;35101;-79
2022/11/20 09:27:58;;;;;;;23.10;13.35;;;;;;;6.60;70.06;99454.63;4318309;33;33348;-76
2022/11/20 09:30:26;;;;;;;27.17;14.30;;;;;;;7.11;69.37;99453.19;4318493;33;34031;-77
2022/11/20 09:32:55;;;;;;;26.70;13.27;;;;;;;6.51;70.20;99453.31;4305365;33;35093;-76
2022/11/20 09:35:22;;;;;;;21.58;11.85;;;;;;;6.09;69.32;99448.69;4316754;33;34610;-76
2022/11/20 09:37:50;;;;;;;21.52;11.60;;;;;;;6.56;68.59;99450.72;4318421;33;34724;-78
2022/11/20 09:40:23;;;;;;;21.40;12.20;;;;;;;6.75;67.93;99454.19;4305340;33;33637;-78
2022/11/20 09:43:12;;;;;;;20.75;12.10;;;;;;;6.56;67.96;99454.25;4305464;33;35019;-77
2022/11/20 09:46:02;;;;;;;23.10;12.45;;;;;;;6.51;67.39;99453.31;4304996;33;33919;-77
2022/11/20 09:48:51;;;;;;;25.37;13.77;;;;;;;6.61;66.48;99445.50;4318338;33;33766;-72
2022/11/20 09:51:42;;;;;;;22.37;12.55;;;;;;;6.77;66.86;99447.50;4305231;33;34782;-73
2022/11/20 09:54:18;;;;;;;26.77;14.68;;;;;;;6.94;66.83;99450.34;4282113;33;35200;-79
2022/11/20 09:56:50;;;;;;;24.48;13.80;;;;;;;6.35;69.60;99449.41;4276489;33;34171;-75
2022/11/20 09:59:31;;;;;;;23.62;13.52;;;;;;;6.54;69.34;99452.84;4276154;33;33652;-73
2022/11/20 10:01:59;;;;;;;24.90;13.88;;;;;;;6.29;68.95;99443.03;4289155;33;33865;-72
2022/11/20 10:04:30;;;;;;;24.87;14.60;;;;;;;6.35;68.40;99452.91;4276179;33;35022;-79
2022/11/20 10:07:05;;;;;;;23.92;14.13;;;;;;;6.62;67.96;99444.44;4276216;33;35075;-73
2022/11/20 10:09:54;;;;;;;23.67;13.82;;;;;;;6.82;67.80;99438.72;4288520;33;33682;-72
2022/11/20 10:12:45;;;;;;;25.02;14.77;;;;;;;6.09;69.97;99437.91;4304006;33;34030;-72
2022/11/20 10:15:35;;;;;;;25.67;13.38;;;;;;;6.17;70.46;99415.22;4290901;33;34980;-70
2022/11/20 10:18:11;;;;;;;26.37;15.70;;;;;;;6.31;69.99;99411.28;4291893;33;34147;-73
2022/11/20 10:20:47;;;;;;;25.27;14.45;;;;;;;5.77;71.25;99402.25;4291798;33;34565;-74
2022/11/20 10:23:29;;;;;;;25.25;13.77;;;;;;;6.19;71.26;99402.34;4292001;33;33483;-72
2022/11/20 10:26:05;;;;;;;27.73;14.87;;;;;;;6.51;70.40;99396.72;4291306;33;34138;-76
2022/11/20 10:28:58;;;;;;;22.13;13.75;;;;;;;7.01;69.57;99404.38;4291893;33;34863;-73
2022/11/20 10:31:44;;;;;;;25.70;13.55;;;;;;;7.43;67.68;99417.78;4304762;33;33239;-72
2022/11/20 10:34:19;;;;;;;24.42;13.90;;;;;;;7.64;66.70;99402.00;4291808;33;34599;-72
2022/11/20 10:36:58;;;;;;;24.25;14.25;;;;;;;7.18;68.26;99397.22;4305133;33;34223;-75
2022/11/20 10:39:33;;;;;;;25.50;13.93;;;;;;;7.16;68.08;99401.22;4291765;33;34174;-70
2022/11/20 10:42:01;;;;;;;24.58;13.70;;;;;;;7.08;67.17;99399.69;4305121;33;33467;-71
2022/11/20 10:47:22;;;;;;;25.52;14.05;;;;;;;7.77;66.12;99391.75;4303038;33;35098;-79
2022/11/20 10:49:55;;;;;;;26.77;14.40;;;;;;;7.19;65.86;99387.25;4291638;33;34268;-81
2022/11/20 10:52:32;;;;;;;24.40;14.70;;;;;;;7.50;65.79;99382.56;4291898;33;35147;-76
2022/11/20 10:55:39;;;;;;;26.00;14.77;;;;;;;7.68;65.12;99395.88;4291694;33;34776;-75
2022/11/20 10:58:16;;;;;;;28.55;16.17;;;;;;;7.40;65.48;99402.03;4291849;33;35262;-75
2022/11/20 11:00:43;;;;;;;29.17;17.40;;;;;;;7.99;64.32;99412.69;4291136;33;34210;-77
2022/11/20 11:03:27;;;;;;;24.55;14.65;;;;;;;7.19;66.47;99423.19;4304914;33;33919;-76
2022/11/20 11:06:06;;;;;;;26.37;14.65;;;;;;;7.44;65.43;99427.50;4304842;33;34080;-79
2022/11/20 11:08:38;;;;;;;24.02;14.45;;;;;;;6.82;66.93;99416.34;4291633;33;35195;-73
2022/11/20 11:11:20;;;;;;;26.87;14.77;;;;;;;6.93;67.20;99410.97;4288021;33;34317;-75
2022/11/20 11:13:48;;;;;;;25.23;14.98;;;;;;;7.31;65.63;99416.94;4302140;33;33573;-71
2022/11/20 11:16:24;;;;;;;26.90;14.90;;;;;;;6.99;66.50;99419.97;4287705;33;33974;-71
2022/11/20 11:19:07;;;;;;;25.50;14.57;;;;;;;7.67;64.51;99423.94;4288404;33;34167;-71
2022/11/20 11:21:35;;;;;;;28.65;15.80;;;;;;;7.84;63.44;99426.75;4302599;33;34251;-70
2022/11/20 11:24:04;;;;;;;26.50;15.82;;;;;;;8.14;62.72;99428.38;4303326;33;33860;-73
2022/11/20 11:26:58;;;;;;;24.33;14.32;;;;;;;7.34;65.68;99433.50;4291871;33;34057;-71
2022/11/20 11:29:29;;;;;;;25.75;14.20;;;;;;;7.28;66.37;99429.03;4290384;33;35017;-73
2022/11/20 11:32:23;;;;;;;26.92;15.60;;;;;;;7.84;64.29;99426.75;4289305;33;34081;-71
2022/11/20 11:35:02;;;;;;;26.17;15.10;;;;;;;6.90;66.70;99429.47;4276159;33;34112;-78
2022/11/20 11:37:35;;;;;;;28.95;16.67;;;;;;;7.18;66.61;99418.00;4286692;33;33398;-79
2022/11/20 11:40:04;;;;;;;38.97;20.42;;;;;;;7.16;67.17;99420.94;4289764;33;34321;-79
2022/11/20 11:42:55;;;;;;;40.12;23.33;;;;;;;6.34;67.74;99418.09;4291842;33;34866;-76
2022/11/20 11:45:23;;;;;;;41.20;22.48;;;;;;;6.57;68.37;99414.66;4289860;33;33809;-82
2022/11/20 11:47:52;;;;;;;35.85;20.45;;;;;;;6.64;68.51;99407.28;4290215;33;33808;-83
2022/11/20 11:50:30;;;;;;;28.77;16.90;;;;;;;6.96;67.56;99398.87;4278329;33;34181;-79